createdAt,value
2023-03-15T00:00:41.963Z,99160.98
2023-03-15T00:01:46.106Z,99160.98
2023-03-15T00:02:48.853Z,99177.97
2023-03-15T00:03:51.808Z,99174.55
2023-03-15T00:04:55.518Z,99174.55
2023-03-15T00:05:58.121Z,99174.55
2023-03-15T00:07:00.673Z,99165.66
2023-03-15T00:08:04.636Z,99172.01
2023-03-15T00:09:07.665Z,99173.72
2023-03-15T00:10:11.092Z,99168.34
2023-03-15T00:11:16.271Z,99168.34
2023-03-15T00:12:19.119Z,99163.81
2023-03-15T00:13:22.845Z,99162.00
2023-03-15T00:14:25.491Z,99165.52
2023-03-15T00:15:29.055Z,99153.80
2023-03-15T00:16:32.906Z,99152.09
2023-03-15T00:17:37.551Z,99149.41
2023-03-15T00:18:40.121Z,99153.95
2023-03-15T00:19:43.315Z,99152.09
2023-03-15T00:20:48.056Z,99153.95
2023-03-15T00:21:51.828Z,99144.91
2023-03-15T00:22:56.508Z,99143.20
2023-03-15T00:23:59.260Z,99143.20
2023-03-15T00:25:02.146Z,99146.03
2023-03-15T00:26:04.892Z,99146.03
2023-03-15T00:27:08.074Z,99139.66
2023-03-15T00:28:10.798Z,99143.48
2023-03-15T00:29:13.431Z,99139.93
2023-03-15T00:30:17.027Z,99136.55
2023-03-15T00:32:36.622Z,99138.39
2023-03-15T00:33:41.154Z,99139.37
2023-03-15T00:34:46.569Z,99132.30
2023-03-15T00:35:51.788Z,99134.14
2023-03-15T00:36:55.023Z,99133.41
2023-03-15T00:37:57.921Z,99135.12
2023-03-15T00:39:01.034Z,99135.95
2023-03-15T00:40:06.866Z,99133.27
2023-03-15T00:41:11.753Z,99133.27
2023-03-15T00:42:15.998Z,99136.09
2023-03-15T00:43:18.776Z,99130.73
2023-03-15T00:44:22.014Z,99135.95
2023-03-15T00:45:24.636Z,99127.91
2023-03-15T00:46:27.984Z,99133.13
2023-03-15T00:47:53.124Z,99135.81
2023-03-15T00:48:57.236Z,99140.34
2023-03-15T00:50:00.870Z,99142.05
2023-03-15T00:51:06.354Z,99136.69
2023-03-15T00:52:09.517Z,99132.16
2023-03-15T00:53:12.285Z,99136.55
2023-03-15T00:54:14.947Z,99138.25
2023-03-15T00:55:18.486Z,99126.64
2023-03-15T00:56:22.950Z,99129.33
2023-03-15T00:57:26.243Z,99131.04
2023-03-15T00:58:28.494Z,99123.13
2023-03-15T00:59:33.862Z,99128.36
2023-03-15T01:00:39.555Z,99120.30
2023-03-15T01:01:44.318Z,99126.64
2023-03-15T01:02:47.104Z,99123.97
2023-03-15T01:03:50.618Z,99124.83
2023-03-15T01:04:53.078Z,99122.15
2023-03-15T01:05:55.627Z,99123.97
2023-03-15T01:06:59.976Z,99127.52
2023-03-15T01:08:03.161Z,99123.13
2023-03-15T01:09:06.405Z,99119.57
2023-03-15T01:10:10.738Z,99120.58
2023-03-15T01:11:16.362Z,99121.41
2023-03-15T01:12:18.928Z,99127.62
2023-03-15T01:13:21.838Z,99131.31
2023-03-15T01:14:24.509Z,99125.95
2023-03-15T01:15:27.707Z,99134.00
2023-03-15T01:16:30.561Z,99135.67
2023-03-15T01:17:33.370Z,99132.89
2023-03-15T01:18:37.800Z,99137.11
2023-03-15T01:19:41.370Z,99130.63
2023-03-15T01:20:44.800Z,99131.20
2023-03-15T01:21:47.748Z,99138.15
2023-03-15T01:22:54.839Z,99133.47
2023-03-15T01:23:57.384Z,99136.02
2023-03-15T01:25:00.579Z,99138.56
2023-03-15T01:26:05.414Z,99135.88
2023-03-15T01:27:09.074Z,99136.61
2023-03-15T01:28:12.155Z,99145.50
2023-03-15T01:29:16.914Z,99143.69
2023-03-15T01:30:20.056Z,99134.77
2023-03-15T01:31:25.633Z,99138.31
2023-03-15T01:32:28.394Z,99142.81
2023-03-15T01:33:31.384Z,99149.05
2023-03-15T01:34:34.497Z,99142.67
2023-03-15T01:35:38.201Z,99142.67
2023-03-15T01:36:42.214Z,99143.55
2023-03-15T01:37:44.919Z,99145.36
2023-03-15T01:38:49.020Z,99147.21
2023-03-15T01:39:53.967Z,99145.36
2023-03-15T01:40:57.773Z,99133.78
2023-03-15T01:42:01.790Z,99140.13
2023-03-15T01:43:09.264Z,99140.13
2023-03-15T01:44:16.031Z,99133.92
2023-03-15T01:45:58.242Z,99132.22
2023-03-15T01:47:01.525Z,99133.05
2023-03-15T01:48:04.832Z,99131.52
2023-03-15T01:49:12.000Z,99131.52
2023-03-15T01:50:16.558Z,99136.02
2023-03-15T01:51:28.401Z,99143.23
2023-03-15T01:52:34.163Z,99141.53
2023-03-15T01:53:39.404Z,99147.04
2023-03-15T01:54:53.749Z,99141.53
2023-03-15T01:55:56.509Z,99148.75
2023-03-15T01:58:26.436Z,99149.75
2023-03-15T01:59:31.706Z,99148.89
2023-03-15T02:00:34.324Z,99150.70
2023-03-15T02:01:38.720Z,99148.16
2023-03-15T02:02:45.833Z,99140.97
2023-03-15T02:03:53.192Z,99146.34
2023-03-15T02:05:04.031Z,99142.64
2023-03-15T02:06:07.837Z,99146.20
2023-03-15T02:07:12.602Z,99149.73
2023-03-15T02:08:16.839Z,99134.45
2023-03-15T02:09:22.029Z,99146.06
2023-03-15T02:10:37.043Z,99146.06
2023-03-15T02:11:39.845Z,99141.53
2023-03-15T02:12:45.927Z,99140.83
2023-03-15T02:13:48.892Z,99139.69
2023-03-15T02:14:53.543Z,99140.55
2023-03-15T02:15:56.419Z,99138.84
2023-03-15T02:17:03.392Z,99130.79
2023-03-15T02:18:06.510Z,99136.16
2023-03-15T02:19:12.212Z,99128.66
2023-03-15T02:20:35.303Z,99128.66
2023-03-15T02:21:45.011Z,99138.84
2023-03-15T02:22:54.154Z,99138.84
2023-03-15T02:24:12.327Z,99130.79
2023-03-15T02:25:39.910Z,99138.98
2023-03-15T02:26:45.397Z,99133.62
2023-03-15T02:27:49.843Z,99143.52
2023-03-15T02:28:53.796Z,99137.28
2023-03-15T02:29:56.367Z,99137.42
2023-03-15T02:30:59.274Z,99134.73
2023-03-15T02:32:03.745Z,99140.10
2023-03-15T02:33:08.845Z,99129.36
2023-03-15T02:34:11.453Z,99128.52
2023-03-15T02:36:39.808Z,99129.11
2023-03-15T02:37:44.024Z,99131.07
2023-03-15T02:38:47.689Z,99131.07
2023-03-15T02:39:50.307Z,99127.41
2023-03-15T02:40:53.119Z,99136.30
2023-03-15T02:41:57.241Z,99130.79
2023-03-15T02:44:28.232Z,99123.34
2023-03-15T02:45:31.469Z,99123.47
2023-03-15T02:46:35.379Z,99126.15
2023-03-15T02:47:39.682Z,99128.83
2023-03-15T02:48:43.133Z,99126.15
2023-03-15T02:49:51.469Z,99117.08
2023-03-15T02:50:54.262Z,99118.93
2023-03-15T02:51:56.796Z,99117.08
2023-03-15T02:52:59.338Z,99115.27
2023-03-15T02:54:01.773Z,99113.42
2023-03-15T02:55:06.171Z,99111.57
2023-03-15T02:56:09.832Z,99106.20
2023-03-15T02:57:13.051Z,99099.99
2023-03-15T02:58:15.927Z,99108.89
2023-03-15T02:59:19.473Z,99107.91
2023-03-15T03:00:23.570Z,99102.53
2023-03-15T03:01:26.518Z,99103.52
2023-03-15T03:02:29.189Z,99107.07
2023-03-15T03:03:32.454Z,99108.78
2023-03-15T03:04:35.565Z,99104.24
2023-03-15T03:05:38.081Z,99109.61
2023-03-15T03:06:42.425Z,99106.92
2023-03-15T03:07:45.578Z,99113.14
2023-03-15T03:08:49.268Z,99102.53
2023-03-15T03:09:53.535Z,99108.78
2023-03-15T03:10:57.367Z,99103.27
2023-03-15T03:12:00.274Z,99107.77
2023-03-15T03:13:03.751Z,99097.02
2023-03-15T03:14:08.249Z,99099.71
2023-03-15T03:15:11.025Z,99097.16
2023-03-15T03:16:14.052Z,99093.50
2023-03-15T03:17:18.506Z,99097.89
2023-03-15T03:18:21.495Z,99099.71
2023-03-15T03:19:25.039Z,99100.58
2023-03-15T03:20:27.907Z,99104.10
2023-03-15T03:21:31.027Z,99098.88
2023-03-15T03:22:34.614Z,99102.39
2023-03-15T03:23:37.288Z,99106.09
2023-03-15T03:24:41.635Z,99095.34
2023-03-15T03:25:46.186Z,99096.19
2023-03-15T03:26:48.861Z,99105.08
2023-03-15T03:27:51.869Z,99094.34
2023-03-15T03:28:55.709Z,99095.20
2023-03-15T03:29:59.058Z,99097.02
2023-03-15T03:31:02.761Z,99105.95
2023-03-15T03:32:06.864Z,99104.10
2023-03-15T03:33:09.407Z,99101.41
2023-03-15T03:34:13.986Z,99101.41
2023-03-15T03:35:17.437Z,99104.10
2023-03-15T03:36:20.318Z,99108.64
2023-03-15T03:37:23.167Z,99104.10
2023-03-15T03:38:33.367Z,99102.39
2023-03-15T03:39:36.635Z,99105.95
2023-03-15T03:40:39.763Z,99104.10
2023-03-15T03:41:42.638Z,99100.58
2023-03-15T03:42:47.353Z,99101.41
2023-03-15T03:43:51.854Z,99106.78
2023-03-15T03:44:55.116Z,99105.08
2023-03-15T03:45:58.968Z,99112.99
2023-03-15T03:47:03.344Z,99110.45
2023-03-15T03:48:06.351Z,99101.27
2023-03-15T03:49:09.817Z,99101.27
2023-03-15T03:50:12.489Z,99103.13
2023-03-15T03:51:15.059Z,99103.13
2023-03-15T03:52:17.710Z,99105.66
2023-03-15T03:53:21.208Z,99109.19
2023-03-15T03:54:24.280Z,99106.50
2023-03-15T03:55:26.968Z,99101.13
2023-03-15T03:56:30.449Z,99107.38
2023-03-15T03:57:33.385Z,99102.00
2023-03-15T03:58:36.189Z,99102.00
2023-03-15T03:59:53.150Z,99100.99
2023-03-15T04:00:55.969Z,99110.90
2023-03-15T04:01:59.007Z,99109.05
2023-03-15T04:03:02.081Z,99103.81
2023-03-15T04:04:06.194Z,99100.16
2023-03-15T04:05:10.934Z,99103.81
2023-03-15T04:06:15.090Z,99103.81
2023-03-15T04:07:19.406Z,99106.50
2023-03-15T04:08:23.765Z,99103.81
2023-03-15T04:09:26.551Z,99109.05
2023-03-15T04:10:32.342Z,99108.35
2023-03-15T04:11:35.767Z,99110.90
2023-03-15T04:12:42.779Z,99108.21
2023-03-15T04:13:46.113Z,99110.90
2023-03-15T04:14:48.803Z,99117.11
2023-03-15T04:15:54.363Z,99109.05
2023-03-15T04:16:57.257Z,99114.42
2023-03-15T04:18:01.802Z,99114.42
2023-03-15T04:19:06.933Z,99111.73
2023-03-15T04:20:13.176Z,99121.50
2023-03-15T04:21:19.857Z,99117.97
2023-03-15T04:22:23.435Z,99115.29
2023-03-15T04:24:51.596Z,99124.06
2023-03-15T04:26:14.171Z,99116.13
2023-03-15T04:28:49.617Z,99116.14
2023-03-15T04:30:12.713Z,99115.43
2023-03-15T04:31:29.790Z,99109.33
2023-03-15T04:32:35.443Z,99113.72
2023-03-15T04:33:49.035Z,99115.57
2023-03-15T04:35:04.457Z,99109.47
2023-03-15T04:37:36.689Z,99107.53
2023-03-15T04:38:43.635Z,99109.61
2023-03-15T04:39:56.624Z,99119.38
2023-03-15T04:41:09.650Z,99116.69
2023-03-15T04:42:30.758Z,99110.45
2023-03-15T04:43:53.399Z,99113.14
2023-03-15T04:44:58.330Z,99107.91
2023-03-15T04:47:22.170Z,99116.85
2023-03-15T04:49:53.135Z,99117.83
2023-03-15T04:51:09.944Z,99121.47
2023-03-15T04:53:35.379Z,99120.38
2023-03-15T04:54:42.186Z,99117.81
2023-03-15T04:55:46.992Z,99120.50
2023-03-15T04:57:08.074Z,99124.02
2023-03-15T04:58:19.088Z,99132.95
2023-03-15T04:59:33.896Z,99131.94
2023-03-15T05:00:44.166Z,99122.90
2023-03-15T05:01:48.734Z,99122.20
2023-03-15T05:04:08.388Z,99130.84
2023-03-15T05:05:24.892Z,99139.02
2023-03-15T05:06:32.494Z,99134.48
2023-03-15T05:09:03.918Z,99134.25
2023-03-15T05:10:11.083Z,99126.31
2023-03-15T05:11:14.305Z,99125.45
2023-03-15T05:12:33.872Z,99127.15
2023-03-15T05:13:41.698Z,99119.94
2023-03-15T05:14:49.410Z,99131.55
2023-03-15T05:16:11.275Z,99119.94
2023-03-15T05:17:16.430Z,99127.01
2023-03-15T05:18:29.986Z,99127.84
2023-03-15T05:19:55.659Z,99132.38
2023-03-15T05:21:05.966Z,99132.38
2023-03-15T05:22:28.556Z,99144.97
2023-03-15T05:23:42.011Z,99135.06
2023-03-15T05:24:46.624Z,99145.81
2023-03-15T05:27:12.929Z,99139.48
2023-03-15T05:28:33.868Z,99141.42
2023-03-15T05:29:46.967Z,99150.34
2023-03-15T05:31:08.400Z,99144.97
2023-03-15T05:33:36.804Z,99143.98
2023-03-15T05:34:58.120Z,99148.64
2023-03-15T05:36:05.036Z,99150.48
2023-03-15T05:37:12.668Z,99154.98
2023-03-15T05:38:35.507Z,99154.84
2023-03-15T05:41:07.600Z,99145.83
2023-03-15T05:42:28.877Z,99144.10
2023-03-15T05:43:40.070Z,99145.11
2023-03-15T05:44:45.349Z,99153.17
2023-03-15T05:46:06.409Z,99140.58
2023-03-15T05:47:09.041Z,99153.17
2023-03-15T05:48:16.496Z,99154.15
2023-03-15T05:49:29.715Z,99147.80
2023-03-15T05:51:55.621Z,99145.97
2023-03-15T05:53:02.591Z,99154.84
2023-03-15T05:54:13.732Z,99148.64
2023-03-15T05:55:27.224Z,99143.27
2023-03-15T05:56:31.843Z,99143.96
2023-03-15T05:57:52.636Z,99150.20
2023-03-15T05:59:12.001Z,99136.77
2023-03-15T06:00:24.068Z,99146.50
2023-03-15T06:01:27.164Z,99150.20
2023-03-15T06:02:37.579Z,99152.89
2023-03-15T06:03:42.235Z,99155.57
2023-03-15T06:04:47.137Z,99147.37
2023-03-15T06:05:52.635Z,99148.36
2023-03-15T06:06:58.739Z,99148.36
2023-03-15T06:08:01.588Z,99142.98
2023-03-15T06:09:05.038Z,99146.39
2023-03-15T06:10:08.740Z,99150.90
2023-03-15T06:11:12.310Z,99150.90
2023-03-15T06:12:15.388Z,99147.23
2023-03-15T06:13:19.756Z,99143.57
2023-03-15T06:14:22.324Z,99151.62
2023-03-15T06:15:26.629Z,99154.31
2023-03-15T06:16:29.505Z,99149.78
2023-03-15T06:17:33.211Z,99155.98
2023-03-15T06:18:36.719Z,99163.06
2023-03-15T06:19:40.581Z,99166.62
2023-03-15T06:20:45.936Z,99157.55
2023-03-15T06:21:49.227Z,99156.72
2023-03-15T06:22:55.484Z,99149.50
2023-03-15T06:24:12.294Z,99151.20
2023-03-15T06:25:14.986Z,99150.37
2023-03-15T06:26:18.798Z,99144.99
2023-03-15T06:27:22.496Z,99161.11
2023-03-15T06:28:27.158Z,99150.37
2023-03-15T06:29:32.057Z,99150.37
2023-03-15T06:30:35.756Z,99145.83
2023-03-15T06:31:38.632Z,99151.20
2023-03-15T06:32:43.468Z,99148.52
2023-03-15T06:33:46.228Z,99145.83
2023-03-15T06:34:50.848Z,99139.48
2023-03-15T06:35:54.046Z,99138.61
2023-03-15T06:36:56.711Z,99134.11
2023-03-15T06:37:59.274Z,99139.34
2023-03-15T06:39:03.998Z,99139.34
2023-03-15T06:40:10.209Z,99134.95
2023-03-15T06:41:14.683Z,99133.97
2023-03-15T06:42:17.586Z,99132.27
2023-03-15T06:43:20.446Z,99130.44
2023-03-15T06:44:23.052Z,99133.13
2023-03-15T06:45:28.237Z,99131.28
2023-03-15T06:46:32.953Z,99139.34
2023-03-15T06:47:36.028Z,99140.17
2023-03-15T06:48:41.099Z,99139.34
2023-03-15T06:49:47.048Z,99136.52
2023-03-15T06:50:51.291Z,99141.05
2023-03-15T06:51:55.085Z,99138.36
2023-03-15T06:53:00.046Z,99137.48
2023-03-15T06:54:02.938Z,99141.05
2023-03-15T06:55:07.847Z,99135.67
2023-03-15T06:56:10.895Z,99135.67
2023-03-15T06:57:14.215Z,99135.67
2023-03-15T06:58:17.303Z,99134.66
2023-03-15T06:59:20.430Z,99134.66
2023-03-15T07:00:24.593Z,99137.34
2023-03-15T07:01:27.397Z,99133.83
2023-03-15T07:02:32.047Z,99132.98
2023-03-15T07:03:34.779Z,99131.97
2023-03-15T07:04:38.481Z,99131.97
2023-03-15T07:05:41.881Z,99131.14
2023-03-15T07:06:45.273Z,99138.22
2023-03-15T07:07:48.598Z,99130.16
2023-03-15T07:08:51.085Z,99127.47
2023-03-15T07:09:55.213Z,99123.77
2023-03-15T07:10:58.497Z,99123.77
2023-03-15T07:12:01.481Z,99124.64
2023-03-15T07:13:05.987Z,99125.48
2023-03-15T07:14:08.558Z,99135.25
2023-03-15T07:15:11.728Z,99138.77
2023-03-15T07:16:14.889Z,99129.03
2023-03-15T07:17:19.324Z,99134.41
2023-03-15T07:18:22.230Z,99133.54
2023-03-15T07:19:24.970Z,99134.41
2023-03-15T07:20:28.663Z,99138.91
2023-03-15T07:21:31.914Z,99129.03
2023-03-15T07:22:35.093Z,99133.40
2023-03-15T07:23:38.817Z,99133.40
2023-03-15T07:24:41.320Z,99136.08
2023-03-15T07:25:54.470Z,99136.08
2023-03-15T07:26:52.403Z,99132.56
2023-03-15T07:27:56.005Z,99133.40
2023-03-15T07:28:59.088Z,99138.77
2023-03-15T07:30:01.936Z,99149.38
2023-03-15T07:31:06.189Z,99138.77
2023-03-15T07:32:09.165Z,99141.45
2023-03-15T07:33:12.775Z,99128.89
2023-03-15T07:34:17.182Z,99133.40
2023-03-15T07:35:19.904Z,99139.50
2023-03-15T07:36:22.369Z,99129.29
2023-03-15T07:37:25.040Z,99129.29
2023-03-15T07:39:44.242Z,99135.01
2023-03-15T07:40:46.943Z,99134.27
2023-03-15T07:41:49.458Z,99138.63
2023-03-15T07:42:53.828Z,99137.94
2023-03-15T07:43:58.572Z,99132.56
2023-03-15T07:45:01.465Z,99130.71
2023-03-15T07:46:06.780Z,99132.56
2023-03-15T07:47:10.363Z,99138.77
2023-03-15T07:49:51.225Z,99130.71
2023-03-15T07:50:54.054Z,99131.14
2023-03-15T07:51:57.745Z,99130.55
2023-03-15T07:53:00.348Z,99133.38
2023-03-15T07:54:03.026Z,99129.86
2023-03-15T07:55:08.202Z,99126.44
2023-03-15T07:56:11.378Z,99121.22
2023-03-15T07:57:13.850Z,99122.92
2023-03-15T07:58:19.735Z,99125.75
2023-03-15T07:59:21.189Z,99119.39
2023-03-15T08:00:24.145Z,99130.14
2023-03-15T08:01:26.649Z,99126.59
2023-03-15T08:02:30.582Z,99123.06
2023-03-15T08:03:33.293Z,99135.66
2023-03-15T08:04:37.066Z,99141.03
2023-03-15T08:05:39.979Z,99134.78
2023-03-15T08:06:43.483Z,99143.82
2023-03-15T08:07:47.252Z,99135.91
2023-03-15T08:08:50.732Z,99143.12
2023-03-15T08:09:53.988Z,99144.10
2023-03-15T08:10:57.025Z,99127.82
2023-03-15T08:11:59.617Z,99127.82
2023-03-15T08:13:02.127Z,99140.86
2023-03-15T08:14:05.869Z,99138.17
2023-03-15T08:16:23.351Z,99126.44
2023-03-15T08:17:25.861Z,99133.78
2023-03-15T08:18:28.595Z,99130.37
2023-03-15T08:19:31.245Z,99126.01
2023-03-15T08:20:33.805Z,99121.47
2023-03-15T08:21:36.372Z,99120.64
2023-03-15T08:22:39.577Z,99121.47
2023-03-15T08:23:42.321Z,99126.84
2023-03-15T08:24:46.717Z,99120.64
2023-03-15T08:25:50.808Z,99116.38
2023-03-15T08:26:53.443Z,99121.89
2023-03-15T08:27:57.458Z,99121.03
2023-03-15T08:29:00.084Z,99125.56
2023-03-15T08:30:03.545Z,99115.23
2023-03-15T08:31:07.580Z,99115.23
2023-03-15T08:32:10.290Z,99121.89
2023-03-15T08:33:12.842Z,99118.63
2023-03-15T08:34:16.235Z,99119.73
2023-03-15T08:35:20.704Z,99130.63
2023-03-15T08:36:23.566Z,99127.94
2023-03-15T08:37:26.573Z,99134.03
2023-03-15T08:38:29.301Z,99134.88
2023-03-15T08:39:32.027Z,99136.58
2023-03-15T08:40:34.646Z,99136.44
2023-03-15T08:41:37.085Z,99132.78
2023-03-15T08:42:40.054Z,99121.03
2023-03-15T08:43:42.744Z,99129.81
2023-03-15T08:44:46.425Z,99112.72
2023-03-15T08:46:00.818Z,99122.31
2023-03-15T08:46:54.304Z,99115.96
2023-03-15T08:47:58.729Z,99117.53
2023-03-15T08:50:17.230Z,99119.11
2023-03-15T08:51:21.123Z,99115.43
2023-03-15T08:52:23.790Z,99115.29
2023-03-15T08:53:27.325Z,99110.61
2023-03-15T08:54:31.117Z,99115.00
2023-03-15T08:55:33.607Z,99113.02
2023-03-15T08:56:37.003Z,99111.05
2023-03-15T08:57:40.448Z,99116.28
2023-03-15T08:58:43.156Z,99115.30
2023-03-15T08:59:45.914Z,99111.64
2023-03-15T09:00:49.361Z,99110.63
2023-03-15T09:01:51.913Z,99113.31
2023-03-15T09:02:54.711Z,99110.48
2023-03-15T09:03:57.608Z,99111.36
2023-03-15T09:05:00.197Z,99098.77
2023-03-15T09:06:02.860Z,99102.28
2023-03-15T09:07:06.467Z,99111.07
2023-03-15T09:08:09.105Z,99113.61
2023-03-15T09:09:11.714Z,99101.02
2023-03-15T09:10:15.353Z,99103.59
2023-03-15T09:11:18.997Z,99105.27
2023-03-15T09:12:21.628Z,99108.83
2023-03-15T09:13:25.304Z,99097.94
2023-03-15T09:14:27.916Z,99106.83
2023-03-15T09:15:30.470Z,99102.33
2023-03-15T09:16:36.926Z,99100.48
2023-03-15T09:17:41.306Z,99099.50
2023-03-15T09:18:45.390Z,99097.68
2023-03-15T09:19:48.891Z,99101.20
2023-03-15T09:20:51.482Z,99102.08
2023-03-15T09:21:59.455Z,99096.70
2023-03-15T09:23:00.456Z,99092.16
2023-03-15T09:24:06.902Z,99094.02
2023-03-15T09:25:10.403Z,99087.63
2023-03-15T09:26:13.334Z,99089.47
2023-03-15T09:27:16.177Z,99092.16
2023-03-15T09:28:18.764Z,99091.33
2023-03-15T09:29:21.593Z,99088.75
2023-03-15T09:30:25.053Z,99085.19
2023-03-15T09:31:28.290Z,99083.38
2023-03-15T09:32:33.091Z,99083.38
2023-03-15T09:33:36.849Z,99081.67
2023-03-15T09:34:42.269Z,99083.52
2023-03-15T09:35:44.981Z,99089.73
2023-03-15T09:36:49.527Z,99084.50
2023-03-15T09:37:52.031Z,99090.71
2023-03-15T09:38:54.775Z,99092.70
2023-03-15T09:39:57.779Z,99088.45
2023-03-15T09:41:01.005Z,99085.05
2023-03-15T09:42:06.356Z,99081.08
2023-03-15T09:43:29.498Z,99091.97
2023-03-15T09:44:48.278Z,99090.16
2023-03-15T09:46:13.305Z,99098.21
2023-03-15T09:47:48.503Z,99090.41
2023-03-15T09:49:15.238Z,99094.22
2023-03-15T09:53:18.077Z,99089.71
2023-03-15T09:54:29.796Z,99088.97
2023-03-15T09:55:33.501Z,99090.23
2023-03-15T09:56:43.948Z,99084.16
2023-03-15T09:58:02.117Z,99085.28
2023-03-15T09:59:05.151Z,99076.25
2023-03-15T10:00:12.395Z,99076.39
2023-03-15T10:01:15.378Z,99079.08
2023-03-15T10:02:24.499Z,99069.31
2023-03-15T10:03:46.036Z,99067.61
2023-03-15T10:04:49.664Z,99075.66
2023-03-15T10:05:56.835Z,99065.06
2023-03-15T10:07:01.939Z,99074.97
2023-03-15T10:08:11.314Z,99071.41
2023-03-15T10:09:16.425Z,99065.20
2023-03-15T10:10:23.087Z,99066.19
2023-03-15T10:11:41.458Z,99070.58
2023-03-15T10:12:46.551Z,99077.91
2023-03-15T10:16:50.596Z,99074.27
2023-03-15T10:18:02.085Z,99069.98
2023-03-15T10:19:20.371Z,99066.47
2023-03-15T10:20:26.421Z,99063.78
2023-03-15T10:23:07.298Z,99061.13
2023-03-15T10:24:35.226Z,99065.63
2023-03-15T10:25:37.862Z,99061.24
2023-03-15T10:26:42.558Z,99058.55
2023-03-15T10:29:17.130Z,99059.55
2023-03-15T10:30:21.952Z,99064.20
2023-03-15T10:31:36.848Z,99051.77
2023-03-15T10:32:32.972Z,99049.08
2023-03-15T10:33:36.447Z,99051.77
2023-03-15T10:34:39.248Z,99048.24
2023-03-15T10:35:43.847Z,99051.77
2023-03-15T10:36:49.682Z,99044.69
2023-03-15T10:37:52.750Z,99045.81
2023-03-15T10:38:55.972Z,99054.59
2023-03-15T10:39:59.156Z,99051.91
2023-03-15T10:41:01.952Z,99058.11
2023-03-15T10:42:05.416Z,99056.30
2023-03-15T10:43:21.416Z,99050.06
2023-03-15T10:44:25.294Z,99054.45
2023-03-15T10:45:30.091Z,99051.77
2023-03-15T10:46:35.158Z,99050.06
2023-03-15T10:47:45.210Z,99056.30
2023-03-15T10:49:02.154Z,99063.48
2023-03-15T10:50:07.877Z,99058.98
2023-03-15T10:51:22.687Z,99069.83
2023-03-15T10:52:34.949Z,99069.83
2023-03-15T10:53:38.286Z,99060.09
2023-03-15T10:54:41.287Z,99062.64
2023-03-15T10:55:44.449Z,99059.23
2023-03-15T10:57:07.596Z,99053.02
2023-03-15T10:58:25.670Z,99053.02
2023-03-15T10:59:33.230Z,99051.17
2023-03-15T11:00:36.974Z,99042.29
2023-03-15T11:01:40.380Z,99041.45
2023-03-15T11:04:24.608Z,99041.33
2023-03-15T11:06:48.906Z,99042.31
2023-03-15T11:07:58.497Z,99044.13
2023-03-15T11:09:08.921Z,99045.11
2023-03-15T11:10:16.856Z,99037.06
2023-03-15T11:11:22.727Z,99034.38
2023-03-15T11:12:27.032Z,99041.45
2023-03-15T11:13:31.824Z,99033.40
2023-03-15T11:14:44.378Z,99040.44
2023-03-15T11:15:50.399Z,99038.63
2023-03-15T11:16:55.461Z,99038.63
2023-03-15T11:17:58.437Z,99034.09
2023-03-15T11:19:01.220Z,99042.00
2023-03-15T11:20:20.049Z,99036.64
2023-03-15T11:21:25.236Z,99037.51
2023-03-15T11:22:27.613Z,99039.18
2023-03-15T11:23:33.293Z,99041.86
2023-03-15T11:24:35.978Z,99035.66
2023-03-15T11:25:38.613Z,99028.44
2023-03-15T11:26:44.161Z,99032.14
2023-03-15T11:27:49.497Z,99043.57
2023-03-15T11:30:15.665Z,99028.31
2023-03-15T11:31:21.111Z,99041.61
2023-03-15T11:32:26.288Z,99033.67
2023-03-15T11:33:41.869Z,99031.86
2023-03-15T11:34:54.059Z,99035.38
2023-03-15T11:35:57.560Z,99037.22
2023-03-15T11:37:08.476Z,99038.06
2023-03-15T11:38:16.746Z,99033.56
2023-03-15T11:39:26.208Z,99042.45
2023-03-15T11:40:38.812Z,99034.39
2023-03-15T11:43:05.967Z,99037.09
2023-03-15T11:44:15.971Z,99037.08
2023-03-15T11:46:43.658Z,99044.17
2023-03-15T11:47:52.017Z,99044.30
2023-03-15T11:49:10.671Z,99026.48
2023-03-15T11:50:15.191Z,99036.25
2023-03-15T11:51:17.932Z,99038.78
2023-03-15T11:52:26.382Z,99037.92
2023-03-15T11:53:37.022Z,99041.47
2023-03-15T11:54:40.956Z,99039.77
2023-03-15T11:55:49.040Z,99036.94
2023-03-15T11:56:54.964Z,99046.84
2023-03-15T11:57:58.092Z,99039.63
2023-03-15T11:59:06.579Z,99040.46
2023-03-15T12:00:35.139Z,99036.94
2023-03-15T12:02:54.666Z,99038.52
2023-03-15T12:04:27.454Z,99036.94
2023-03-15T12:07:18.669Z,99031.44
2023-03-15T12:08:29.787Z,99035.23
2023-03-15T12:09:37.261Z,99030.88
2023-03-15T12:10:46.233Z,99025.62
2023-03-15T12:11:50.202Z,99028.30
2023-03-15T12:13:02.289Z,99021.11
2023-03-15T12:14:07.321Z,99029.17
2023-03-15T12:15:26.399Z,99021.11
2023-03-15T12:16:35.367Z,99023.80
2023-03-15T12:17:44.337Z,99015.89
2023-03-15T12:18:47.129Z,99016.87
2023-03-15T12:20:00.328Z,99006.12
2023-03-15T12:21:13.174Z,99015.16
2023-03-15T12:22:16.299Z,99019.70
2023-03-15T12:23:34.425Z,99014.47
2023-03-15T12:24:37.236Z,99009.10
2023-03-15T12:25:59.190Z,99016.28
2023-03-15T12:27:16.439Z,99022.66
2023-03-15T12:28:24.959Z,99018.27
2023-03-15T12:29:29.294Z,99016.70
2023-03-15T12:30:33.461Z,99014.16
2023-03-15T12:32:06.187Z,99014.16
2023-03-15T12:33:18.975Z,99007.81
2023-03-15T12:34:39.740Z,99008.66
2023-03-15T12:35:43.395Z,99003.42
2023-03-15T12:36:46.869Z,99016.84
2023-03-15T12:37:51.687Z,99009.63
2023-03-15T12:40:19.789Z,99013.90
2023-03-15T12:42:48.712Z,99020.97
2023-03-15T12:43:51.730Z,99024.62
2023-03-15T12:44:54.475Z,99013.88
2023-03-15T12:45:58.479Z,99018.27
2023-03-15T12:47:06.134Z,99026.19
2023-03-15T12:48:13.231Z,99027.75
2023-03-15T12:49:29.944Z,99027.61
2023-03-15T12:50:48.596Z,99022.09
2023-03-15T12:52:02.795Z,99017.56
2023-03-15T12:53:27.007Z,99029.03
2023-03-15T12:55:00.057Z,99029.86
2023-03-15T12:56:24.716Z,99024.50
2023-03-15T12:57:30.516Z,99021.81
2023-03-15T12:58:38.147Z,99014.77
2023-03-15T12:59:54.220Z,99018.58
2023-03-15T13:00:59.140Z,99016.72
2023-03-15T13:02:03.507Z,99023.94
2023-03-15T13:03:21.590Z,99019.41
2023-03-15T13:04:26.874Z,99020.25
2023-03-15T13:05:45.248Z,99019.27
2023-03-15T13:06:54.393Z,99028.05
2023-03-15T13:08:31.415Z,99019.85
2023-03-15T13:10:01.601Z,99021.52
2023-03-15T13:11:10.095Z,99017.86
2023-03-15T13:12:16.746Z,99023.09
2023-03-15T13:13:38.293Z,99024.10
2023-03-15T13:15:01.486Z,99026.78
2023-03-15T13:16:23.141Z,99025.77
2023-03-15T13:17:36.631Z,99025.63
2023-03-15T13:18:44.061Z,99025.63
2023-03-15T13:19:51.571Z,99029.33
2023-03-15T13:21:05.660Z,99030.16
2023-03-15T13:22:54.866Z,99032.70
2023-03-15T13:23:51.597Z,99028.20
2023-03-15T13:25:17.017Z,99037.09
2023-03-15T13:26:32.820Z,99037.94
2023-03-15T13:27:55.901Z,99041.48
2023-03-15T13:29:01.279Z,99039.64
2023-03-15T13:30:28.296Z,99039.64
2023-03-15T13:31:32.006Z,99044.87
2023-03-15T13:32:34.918Z,99041.20
2023-03-15T13:33:38.908Z,99046.58
2023-03-15T13:34:42.418Z,99042.91
2023-03-15T13:35:47.410Z,99048.14
2023-03-15T13:36:57.771Z,99049.95
2023-03-15T13:38:20.855Z,99043.46
2023-03-15T13:40:46.641Z,99044.89
2023-03-15T13:41:50.807Z,99044.73
2023-03-15T13:42:56.195Z,99037.55
2023-03-15T13:44:00.962Z,99041.91
2023-03-15T13:45:11.063Z,99049.82
2023-03-15T13:46:15.205Z,99048.84
2023-03-15T13:47:24.473Z,99051.38
2023-03-15T13:49:43.860Z,99050.98
2023-03-15T13:50:49.987Z,99047.43
2023-03-15T13:51:52.878Z,99047.29
2023-03-15T13:52:57.917Z,99051.53